Time;durP1;ratioP1;P1;durP2;ratioP2;P2;SDS_P1;SDS_P2;PMS_P1;PMS_P2;Temp;Humidity;BMP_temperature;BMP_pressure;BME280_temperature;BME280_humidity;BME280_pressure;Samples;Min_cycle;Max_cycle;Signal;HPM_P1;HPM_P2
2022/08/27 00:01:24;;;;;;;;;;;;;;;;;;6093989;23;8405;-86
2022/08/27 00:03:52;;;;;;;;;;;;;;;;;;6095307;23;9580;-86
2022/08/27 00:06:19;;;;;;;;;;;;;;;;;;6093807;23;8474;-87
2022/08/27 00:08:45;;;;;;;;;;;;;;;;;;6094102;23;7357;-87
2022/08/27 00:11:11;;;;;;;;;;;;;;;;;;6093943;23;8368;-86
2022/08/27 00:13:37;;;;;;;;;;;;;;;;;;6093985;23;8751;-87
2022/08/27 00:16:05;;;;;;;;;;;;;;;;;;6092614;23;8304;-87
2022/08/27 00:18:32;;;;;;;;;;;;;;;;;;6041291;23;8426;-85
2022/08/27 00:20:57;;;;;;;;;;;;;;;;;;6040969;23;7050;-87
2022/08/27 00:23:23;;;;;;;;;;;;;;;;;;6041127;23;8376;-88
2022/08/27 00:25:48;;;;;;;;;;;;;;;;;;6041530;23;9248;-87
2022/08/27 00:28:14;;;;;;;;;;;;;;;;;;6041408;23;8589;-87
2022/08/27 00:30:40;;;;;;;;;;;;;;;;;;6041607;23;6905;-87
2022/08/27 00:33:06;;;;;;;;;;;;;;;;;;6041044;23;7016;-86
2022/08/27 00:35:32;;;;;;;;;;;;;;;;;;6041163;23;7063;-87
2022/08/27 00:37:59;;;;;;;;;;;;;;;;;;6040985;23;7266;-86
2022/08/27 00:40:26;;;;;;;;;;;;;;;;;;6040840;23;7150;-87
2022/08/27 00:42:52;;;;;;;;;;;;;;;;;;6041183;23;8527;-88
2022/08/27 00:45:20;;;;;;;;;;;;;;;;;;6040983;23;8659;-88
2022/08/27 00:47:49;;;;;;;;;;;;;;;;;;6041018;23;7022;-87
2022/08/27 00:50:33;;;;;;;;;;;;;;;;;;6040842;23;7017;-87
2022/08/27 00:53:02;;;;;;;;;;;;;;;;;;6041040;23;8400;-87
2022/08/27 00:55:34;;;;;;;;;;;;;;;;;;6040431;23;7268;-87
2022/08/27 00:58:20;;;;;;;;;;;;;;;;;;6040812;23;8901;-88
2022/08/27 01:00:46;;;;;;;;;;;;;;;;;;6040999;23;6848;-87
2022/08/27 01:03:13;;;;;;;;;;;;;;;;;;6041025;23;7023;-86
2022/08/27 01:05:38;;;;;;;;;;;;;;;;;;6040566;23;8335;-87
2022/08/27 01:08:11;;;;;;;;;;;;;;;;;;6040820;23;8498;-87
2022/08/27 01:10:38;;;;;;;;;;;;;;;;;;6040561;23;8379;-85
2022/08/27 01:13:06;;;;;;;;;;;;;;;;;;6040537;23;6839;-86
2022/08/27 01:15:32;;;;;;;;;;;;;;;;;;6040906;23;8416;-85
2022/08/27 01:17:58;;;;;;;;;;;;;;;;;;6083614;23;8407;-85
2022/08/27 01:20:30;;;;;;;;;;;;;;;;;;6093237;23;6909;-87
2022/08/27 01:23:04;;;;;;;;;;;;;;;;;;6093430;23;6841;-86
2022/08/27 01:25:30;;;;;;;;;;;;;;;;;;6093265;23;8289;-87
2022/08/27 01:27:59;;;;;;;;;;;;;;;;;;6093322;23;7421;-87
2022/08/27 01:30:25;;;;;;;;;;;;;;;;;;6093738;23;7176;-88
2022/08/27 01:32:51;;;;;;;;;;;;;;;;;;6093239;23;8665;-87
2022/08/27 01:35:18;;;;;;;;;;;;;;;;;;6093724;23;6828;-88
2022/08/27 01:37:46;;;;;;;;;;;;;;;;;;6093344;23;7045;-87
2022/08/27 01:40:12;;;;;;;;;;;;;;;;;;6092792;23;8535;-87
2022/08/27 01:42:41;;;;;;;;;;;;;;;;;;6093367;23;8753;-86
2022/08/27 01:45:07;;;;;;;;;;;;;;;;;;6093549;23;8437;-85
2022/08/27 01:47:34;;;;;;;;;;;;;;;;;;6069070;23;8509;-87
2022/08/27 01:50:00;;;;;;;;;;;;;;;;;;6093651;23;8250;-89
2022/08/27 01:52:28;;;;;;;;;;;;;;;;;;6093499;23;8529;-87
2022/08/27 01:54:54;;;;;;;;;;;;;;;;;;6093004;23;8745;-87
2022/08/27 01:57:20;;;;;;;;;;;;;;;;;;6093166;23;8773;-86
2022/08/27 01:59:47;;;;;;;;;;;;;;;;;;6093198;23;7426;-87
2022/08/27 02:02:15;;;;;;;;;;;;;;;;;;6094181;23;7464;-86
2022/08/27 02:04:43;;;;;;;;;;;;;;;;;;6093230;23;7010;-87
2022/08/27 02:07:09;;;;;;;;;;;;;;;;;;6093218;23;8392;-88
2022/08/27 02:09:36;;;;;;;;;;;;;;;;;;6093014;23;8510;-87
2022/08/27 02:12:03;;;;;;;;;;;;;;;;;;6093243;23;7164;-84
2022/08/27 02:14:28;;;;;;;;;;;;;;;;;;6092740;23;8423;-85
2022/08/27 02:16:54;;;;;;;;;;;;;;;;;;6092840;23;8333;-85
2022/08/27 02:19:21;;;;;;;;;;;;;;;;;;6092805;23;7036;-85
2022/08/27 02:21:48;;;;;;;;;;;;;;;;;;6092522;23;6910;-85
2022/08/27 02:24:15;;;;;;;;;;;;;;;;;;6092859;23;7169;-84
2022/08/27 02:26:40;;;;;;;;;;;;;;;;;;6093412;23;6833;-86
2022/08/27 02:29:06;;;;;;;;;;;;;;;;;;6093812;23;8279;-87
2022/08/27 02:31:32;;;;;;;;;;;;;;;;;;6095165;23;8627;-86
2022/08/27 02:33:58;;;;;;;;;;;;;;;;;;6095672;23;7229;-86
2022/08/27 02:36:24;;;;;;;;;;;;;;;;;;6071905;23;6993;-85
2022/08/27 02:38:50;;;;;;;;;;;;;;;;;;6094610;23;6980;-85
2022/08/27 02:41:15;;;;;;;;;;;;;;;;;;6095853;23;8710;-85
2022/08/27 02:43:42;;;;;;;;;;;;;;;;;;6094934;23;8457;-85
2022/08/27 02:46:10;;;;;;;;;;;;;;;;;;6094613;23;8741;-86
2022/08/27 02:48:38;;;;;;;;;;;;;;;;;;6094627;23;7074;-86
2022/08/27 02:51:05;;;;;;;;;;;;;;;;;;6094632;23;6896;-88
2022/08/27 02:53:31;;;;;;;;;;;;;;;;;;6094716;23;8710;-87
2022/08/27 02:55:56;;;;;;;;;;;;;;;;;;6094251;23;9440;-87
2022/08/27 02:58:22;;;;;;;;;;;;;;;;;;6095137;23;8359;-85
2022/08/27 03:00:47;;;;;;;;;;;;;;;;;;6094519;23;9445;-85
2022/08/27 03:03:12;;;;;;;;;;;;;;;;;;6070414;23;8722;-85
2022/08/27 03:05:38;;;;;;;;;;;;;;;;;;6094560;23;8765;-86
2022/08/27 03:08:05;;;;;;;;;;;;;;;;;;6094450;23;7087;-87
2022/08/27 03:10:31;;;;;;;;;;;;;;;;;;6094550;23;8391;-86
2022/08/27 03:12:57;;;;;;;;;;;;;;;;;;6094291;23;8266;-85
2022/08/27 03:15:23;;;;;;;;;;;;;;;;;;6094345;23;8332;-88
2022/08/27 03:20:36;;;;;;;;;;;;;;;;;;6071867;23;6807;-85
2022/08/27 03:23:01;;;;;;;;;;;;;;;;;;6094525;23;8443;-85
2022/08/27 03:25:27;;;;;;;;;;;;;;;;;;6094298;23;7008;-86
2022/08/27 03:27:52;;;;;;;;;;;;;;;;;;6094674;23;8449;-84
2022/08/27 03:30:20;;;;;;;;;;;;;;;;;;6093543;23;8449;-87
2022/08/27 03:32:46;;;;;;;;;;;;;;;;;;6094289;23;7971;-86
2022/08/27 03:35:11;;;;;;;;;;;;;;;;;;6070203;23;8449;-84
2022/08/27 03:37:37;;;;;;;;;;;;;;;;;;6094185;23;8360;-88
2022/08/27 03:40:04;;;;;;;;;;;;;;;;;;6094127;23;8481;-85
2022/08/27 03:42:31;;;;;;;;;;;;;;;;;;6094083;23;8711;-86
2022/08/27 03:44:56;;;;;;;;;;;;;;;;;;6094254;23;8402;-85
2022/08/27 03:47:22;;;;;;;;;;;;;;;;;;6094595;23;8450;-87
2022/08/27 03:49:48;;;;;;;;;;;;;;;;;;6093927;23;8403;-84
2022/08/27 03:52:14;;;;;;;;;;;;;;;;;;6093868;23;7144;-84
2022/08/27 03:54:40;;;;;;;;;;;;;;;;;;6094834;23;7169;-85
2022/08/27 03:57:06;;;;;;;;;;;;;;;;;;6094020;23;8385;-88
2022/08/27 03:59:32;;;;;;;;;;;;;;;;;;6094248;23;9518;-87
2022/08/27 04:01:58;;;;;;;;;;;;;;;;;;6093833;23;6967;-84
2022/08/27 04:04:24;;;;;;;;;;;;;;;;;;6093582;23;8424;-85
2022/08/27 04:06:50;;;;;;;;;;;;;;;;;;6093826;23;7027;-84
2022/08/27 04:09:16;;;;;;;;;;;;;;;;;;6094579;23;8470;-85
2022/08/27 04:11:41;;;;;;;;;;;;;;;;;;6094386;23;7131;-86
2022/08/27 04:14:08;;;;;;;;;;;;;;;;;;6094186;23;8417;-85
2022/08/27 04:16:35;;;;;;;;;;;;;;;;;;6093863;23;7031;-86
2022/08/27 04:19:01;;;;;;;;;;;;;;;;;;6094466;23;8390;-87
2022/08/27 04:21:28;;;;;;;;;;;;;;;;;;6093754;23;8410;-86
2022/08/27 04:23:55;;;;;;;;;;;;;;;;;;6093995;23;7163;-85
2022/08/27 04:26:22;;;;;;;;;;;;;;;;;;6094109;23;8782;-88
2022/08/27 04:28:48;;;;;;;;;;;;;;;;;;6093841;23;7158;-86
2022/08/27 04:31:13;;;;;;;;;;;;;;;;;;6093698;23;9809;-87
2022/08/27 04:33:39;;;;;;;;;;;;;;;;;;6093732;23;8334;-85
2022/08/27 04:36:07;;;;;;;;;;;;;;;;;;6087372;23;9933;-85
2022/08/27 04:38:32;;;;;;;;;;;;;;;;;;6092026;23;8411;-86
2022/08/27 04:41:19;;;;;;;;;;;;;;;;;;6091751;23;8635;-87
2022/08/27 04:43:49;;;;;;;;;;;;;;;;;;6091685;23;8530;-86
2022/08/27 04:46:19;;;;;;;;;;;;;;;;;;6092361;23;8585;-85
2022/08/27 04:48:44;;;;;;;;;;;;;;;;;;6092142;23;8414;-87
2022/08/27 04:51:09;;;;;;;;;;;;;;;;;;6091761;23;6977;-80
2022/08/27 04:53:35;;;;;;;;;;;;;;;;;;6091760;23;8818;-83
2022/08/27 04:56:00;;;;;;;;;;;;;;;;;;6092634;23;8384;-85
2022/08/27 04:58:26;;;;;;;;;;;;;;;;;;6091546;23;7122;-85
2022/08/27 05:00:53;;;;;;;;;;;;;;;;;;6092491;23;8435;-84
2022/08/27 05:03:24;;;;;;;;;;;;;;;;;;6091550;23;8364;-84
2022/08/27 05:05:52;;;;;;;;;;;;;;;;;;6091865;23;8454;-85
2022/08/27 05:08:17;;;;;;;;;;;;;;;;;;6092397;23;7257;-85
2022/08/27 05:10:45;;;;;;;;;;;;;;;;;;6091748;23;7139;-85
2022/08/27 05:13:10;;;;;;;;;;;;;;;;;;6091793;23;7054;-84
2022/08/27 05:15:37;;;;;;;;;;;;;;;;;;6092959;23;8453;-83
2022/08/27 05:18:02;;;;;;;;;;;;;;;;;;6091545;23;8466;-85
2022/08/27 05:20:29;;;;;;;;;;;;;;;;;;6089573;23;7227;-84
2022/08/27 05:22:55;;;;;;;;;;;;;;;;;;6091172;23;8345;-85
2022/08/27 05:25:22;;;;;;;;;;;;;;;;;;6095222;23;8379;-87
2022/08/27 05:27:47;;;;;;;;;;;;;;;;;;6095725;23;8504;-85
2022/08/27 05:30:13;;;;;;;;;;;;;;;;;;6094621;23;8512;-85
2022/08/27 05:32:38;;;;;;;;;;;;;;;;;;6093879;23;8430;-81
2022/08/27 05:35:04;;;;;;;;;;;;;;;;;;6094559;23;8853;-82
2022/08/27 05:37:32;;;;;;;;;;;;;;;;;;6096393;23;7309;-79
2022/08/27 05:39:59;;;;;;;;;;;;;;;;;;6093480;23;8767;-84
2022/08/27 05:42:25;;;;;;;;;;;;;;;;;;6094094;23;8838;-86
2022/08/27 05:44:51;;;;;;;;;;;;;;;;;;6095404;23;6798;-83
2022/08/27 05:47:16;;;;;;;;;;;;;;;;;;6093489;23;7154;-85
2022/08/27 05:49:42;;;;;;;;;;;;;;;;;;6095119;23;8417;-87
2022/08/27 05:52:10;;;;;;;;;;;;;;;;;;6095574;23;7131;-87
2022/08/27 05:54:36;;;;;;;;;;;;;;;;;;6095210;23;6933;-81
2022/08/27 05:57:02;;;;;;;;;;;;;;;;;;6093582;23;8412;-85
2022/08/27 06:02:11;;;;;;;;;;;;;;;;;;6070282;23;6972;-84
2022/08/27 06:04:37;;;;;;;;;;;;;;;;;;6093532;23;8538;-87
2022/08/27 06:07:03;;;;;;;;;;;;;;;;;;6095013;23;8372;-87
2022/08/27 06:09:29;;;;;;;;;;;;;;;;;;6095118;23;8409;-88
2022/08/27 06:11:56;;;;;;;;;;;;;;;;;;6095147;23;7023;-88
2022/08/27 06:14:22;;;;;;;;;;;;;;;;;;6095298;23;8470;-87
2022/08/27 06:16:47;;;;;;;;;;;;;;;;;;6094624;23;8754;-86
2022/08/27 06:19:13;;;;;;;;;;;;;;;;;;6095151;23;8727;-86
2022/08/27 06:21:40;;;;;;;;;;;;;;;;;;6073587;23;7018;-86
2022/08/27 06:24:06;;;;;;;;;;;;;;;;;;6095552;23;8494;-86
2022/08/27 06:26:35;;;;;;;;;;;;;;;;;;6095815;23;8364;-87
2022/08/27 06:29:02;;;;;;;;;;;;;;;;;;6096517;23;7032;-86
2022/08/27 06:31:28;;;;;;;;;;;;;;;;;;6095989;23;7080;-85
2022/08/27 06:34:00;;;;;;;;;;;;;;;;;;6097074;23;6812;-85
2022/08/27 06:36:28;;;;;;;;;;;;;;;;;;6072022;23;7074;-86
2022/08/27 06:38:54;;;;;;;;;;;;;;;;;;6095561;23;7062;-81
2022/08/27 06:41:22;;;;;;;;;;;;;;;;;;6096708;23;7029;-85
2022/08/27 06:43:48;;;;;;;;;;;;;;;;;;6072797;23;6986;-87
2022/08/27 06:46:15;;;;;;;;;;;;;;;;;;6096560;23;8431;-86
2022/08/27 06:48:43;;;;;;;;;;;;;;;;;;6094732;23;8396;-85
2022/08/27 06:51:11;;;;;;;;;;;;;;;;;;6094564;23;8344;-85
2022/08/27 06:53:37;;;;;;;;;;;;;;;;;;6094642;23;8868;-86
2022/08/27 06:56:04;;;;;;;;;;;;;;;;;;6094483;23;7005;-85
2022/08/27 06:58:30;;;;;;;;;;;;;;;;;;6094771;23;7001;-87
2022/08/27 07:00:55;;;;;;;;;;;;;;;;;;6094792;23;8328;-84
2022/08/27 07:03:21;;;;;;;;;;;;;;;;;;6094657;23;6974;-84
2022/08/27 07:05:46;;;;;;;;;;;;;;;;;;6094909;23;8480;-86
2022/08/27 07:08:12;;;;;;;;;;;;;;;;;;6094618;23;8335;-85
2022/08/27 07:10:38;;;;;;;;;;;;;;;;;;6094397;23;8417;-86
2022/08/27 07:13:04;;;;;;;;;;;;;;;;;;6094775;23;6826;-86
2022/08/27 07:15:30;;;;;;;;;;;;;;;;;;6094094;23;6984;-85
2022/08/27 07:17:56;;;;;;;;;;;;;;;;;;6094086;23;7171;-85
2022/08/27 07:20:21;;;;;;;;;;;;;;;;;;6094161;23;8410;-86
2022/08/27 07:22:48;;;;;;;;;;;;;;;;;;6094081;23;8295;-86
2022/08/27 07:25:19;;;;;;;;;;;;;;;;;;6095243;23;7189;-83
2022/08/27 07:27:46;;;;;;;;;;;;;;;;;;6094408;23;8385;-85
2022/08/27 07:30:14;;;;;;;;;;;;;;;;;;6094461;23;8453;-85
2022/08/27 07:32:40;;;;;;;;;;;;;;;;;;6094409;23;8696;-85
2022/08/27 07:35:08;;;;;;;;;;;;;;;;;;6094111;23;8403;-85
2022/08/27 07:37:38;;;;;;;;;;;;;;;;;;6094131;23;8969;-86
2022/08/27 07:40:06;;;;;;;;;;;;;;;;;;6093747;23;8337;-85
2022/08/27 07:45:15;;;;;;;;;;;;;;;;;;6071537;23;6799;-84
2022/08/27 07:47:41;;;;;;;;;;;;;;;;;;6093981;23;7143;-84
2022/08/27 07:50:07;;;;;;;;;;;;;;;;;;6094241;23;8573;-81
2022/08/27 07:52:33;;;;;;;;;;;;;;;;;;6094116;23;8467;-80
2022/08/27 07:54:58;;;;;;;;;;;;;;;;;;6093844;23;8839;-80
2022/08/27 07:57:24;;;;;;;;;;;;;;;;;;6093864;23;7119;-80
2022/08/27 07:59:51;;;;;;;;;;;;;;;;;;6094009;23;8526;-80
2022/08/27 08:02:18;;;;;;;;;;;;;;;;;;6094005;23;8360;-81
2022/08/27 08:04:44;;;;;;;;;;;;;;;;;;6094107;23;8429;-80
2022/08/27 08:07:09;;;;;;;;;;;;;;;;;;6093922;23;7197;-81
2022/08/27 08:09:35;;;;;;;;;;;;;;;;;;6093802;23;8397;-81
2022/08/27 08:12:01;;;;;;;;;;;;;;;;;;6093903;23;8371;-80
2022/08/27 08:14:27;;;;;;;;;;;;;;;;;;6094627;23;8711;-80
2022/08/27 08:16:52;;;;;;;;;;;;;;;;;;6093478;23;7323;-80
2022/08/27 08:19:18;;;;;;;;;;;;;;;;;;6094820;23;8700;-81
2022/08/27 08:21:43;;;;;;;;;;;;;;;;;;6093961;23;8498;-84
2022/08/27 08:24:09;;;;;;;;;;;;;;;;;;6094399;23;7030;-84
2022/08/27 08:26:34;;;;;;;;;;;;;;;;;;6093608;23;7391;-84
2022/08/27 08:29:03;;;;;;;;;;;;;;;;;;6094456;23;8416;-84
2022/08/27 08:31:29;;;;;;;;;;;;;;;;;;6093642;23;7865;-84
2022/08/27 08:33:54;;;;;;;;;;;;;;;;;;6093611;23;7145;-84
2022/08/27 08:36:20;;;;;;;;;;;;;;;;;;6093784;23;8365;-83
2022/08/27 08:38:47;;;;;;;;;;;;;;;;;;6093742;23;7187;-84
2022/08/27 08:41:37;;;;;;;;;;;;;;;;;;6093483;23;7175;-85
2022/08/27 08:44:11;;;;;;;;;;;;;;;;;;6093619;23;7314;-84
2022/08/27 08:46:43;;;;;;;;;;;;;;;;;;6093610;23;7059;-84
2022/08/27 08:49:15;;;;;;;;;;;;;;;;;;6093600;23;8408;-83
2022/08/27 08:51:42;;;;;;;;;;;;;;;;;;6069604;23;7165;-85
2022/08/27 08:54:14;;;;;;;;;;;;;;;;;;6093479;23;8386;-85
2022/08/27 08:56:48;;;;;;;;;;;;;;;;;;6093597;23;8701;-85
2022/08/27 08:59:34;;;;;;;;;;;;;;;;;;6093549;23;7116;-84
2022/08/27 09:02:00;;;;;;;;;;;;;;;;;;6068697;23;8730;-85
2022/08/27 09:04:27;;;;;;;;;;;;;;;;;;6093930;23;6975;-84
2022/08/27 09:07:00;;;;;;;;;;;;;;;;;;6093439;23;8721;-85
2022/08/27 09:09:44;;;;;;;;;;;;;;;;;;6093564;23;8441;-84
2022/08/27 09:12:15;;;;;;;;;;;;;;;;;;6069544;23;8857;-84
2022/08/27 09:14:46;;;;;;;;;;;;;;;;;;6094104;23;8672;-85
2022/08/27 09:17:12;;;;;;;;;;;;;;;;;;6093407;23;7156;-85
2022/08/27 09:19:37;;;;;;;;;;;;;;;;;;6093368;23;8399;-84
2022/08/27 09:22:18;;;;;;;;;;;;;;;;;;6093208;23;8422;-85
2022/08/27 09:24:54;;;;;;;;;;;;;;;;;;6093422;23;8638;-84
2022/08/27 09:27:21;;;;;;;;;;;;;;;;;;6093250;23;8387;-85
2022/08/27 09:29:50;;;;;;;;;;;;;;;;;;6094345;23;8451;-85
2022/08/27 09:32:21;;;;;;;;;;;;;;;;;;6093079;23;9043;-84
2022/08/27 09:34:47;;;;;;;;;;;;;;;;;;6094384;23;8691;-84
2022/08/27 09:37:16;;;;;;;;;;;;;;;;;;6093367;23;8869;-85
2022/08/27 09:39:42;;;;;;;;;;;;;;;;;;6093985;23;8439;-84
2022/08/27 09:42:18;;;;;;;;;;;;;;;;;;6068965;23;7118;-85
2022/08/27 09:44:46;;;;;;;;;;;;;;;;;;6093398;23;8395;-85
2022/08/27 09:47:14;;;;;;;;;;;;;;;;;;6093517;23;8703;-84
2022/08/27 09:49:41;;;;;;;;;;;;;;;;;;6093077;23;7052;-85
2022/08/27 09:52:07;;;;;;;;;;;;;;;;;;6092988;23;8647;-85
2022/08/27 09:54:40;;;;;;;;;;;;;;;;;;6093307;23;8426;-85
2022/08/27 09:57:07;;;;;;;;;;;;;;;;;;6093266;23;8719;-85
2022/08/27 09:59:33;;;;;;;;;;;;;;;;;;6093860;23;8589;-85
2022/08/27 10:02:13;;;;;;;;;;;;;;;;;;6069024;23;8433;-87
2022/08/27 10:04:41;;;;;;;;;;;;;;;;;;6093990;23;7162;-88
2022/08/27 10:07:20;;;;;;;;;;;;;;;;;;6093138;23;8799;-87
2022/08/27 10:09:57;;;;;;;;;;;;;;;;;;6093677;23;7329;-87
2022/08/27 10:12:31;;;;;;;;;;;;;;;;;;6093213;23;7595;-86
2022/08/27 10:14:59;;;;;;;;;;;;;;;;;;6094105;23;7264;-86
2022/08/27 10:17:46;;;;;;;;;;;;;;;;;;6093333;23;8867;-87
2022/08/27 10:20:24;;;;;;;;;;;;;;;;;;6093919;23;8744;-89
2022/08/27 10:22:50;;;;;;;;;;;;;;;;;;6094789;23;8447;-87
2022/08/27 10:25:42;;;;;;;;;;;;;;;;;;6068788;23;8828;-88
2022/08/27 10:28:20;;;;;;;;;;;;;;;;;;6093005;23;8462;-88
2022/08/27 10:31:12;;;;;;;;;;;;;;;;;;6068727;23;8812;-88
2022/08/27 10:33:58;;;;;;;;;;;;;;;;;;6093197;23;8400;-87
2022/08/27 10:36:44;;;;;;;;;;;;;;;;;;6093810;23;8722;-88
2022/08/27 10:39:31;;;;;;;;;;;;;;;;;;6067914;23;7040;-87
2022/08/27 10:42:13;;;;;;;;;;;;;;;;;;6095421;23;7064;-87
2022/08/27 10:44:38;;;;;;;;;;;;;;;;;;6093604;23;8486;-88
2022/08/27 10:47:04;;;;;;;;;;;;;;;;;;6069015;23;7148;-87
2022/08/27 10:49:46;;;;;;;;;;;;;;;;;;6069006;23;8465;-87
2022/08/27 10:52:32;;;;;;;;;;;;;;;;;;6095084;23;8713;-87
2022/08/27 10:55:16;;;;;;;;;;;;;;;;;;6095483;23;8930;-87
2022/08/27 10:57:45;;;;;;;;;;;;;;;;;;6070831;23;8497;-87
2022/08/27 11:00:33;;;;;;;;;;;;;;;;;;6068332;23;8468;-87
2022/08/27 11:03:06;;;;;;;;;;;;;;;;;;6093638;23;8509;-85
2022/08/27 11:05:41;;;;;;;;;;;;;;;;;;6094817;23;8512;-86
2022/08/27 11:08:06;;;;;;;;;;;;;;;;;;6094510;23;8501;-86
2022/08/27 11:10:35;;;;;;;;;;;;;;;;;;6070184;23;8432;-86
2022/08/27 11:13:10;;;;;;;;;;;;;;;;;;6094388;23;8417;-88
2022/08/27 11:15:37;;;;;;;;;;;;;;;;;;6094408;23;8427;-85
2022/08/27 11:18:08;;;;;;;;;;;;;;;;;;6094291;23;8742;-86
2022/08/27 11:20:44;;;;;;;;;;;;;;;;;;6094950;23;8483;-85
2022/08/27 11:23:15;;;;;;;;;;;;;;;;;;6094249;23;6835;-86
2022/08/27 11:25:40;;;;;;;;;;;;;;;;;;6070334;23;8415;-85
2022/08/27 11:28:07;;;;;;;;;;;;;;;;;;6069958;23;8438;-84
2022/08/27 11:30:41;;;;;;;;;;;;;;;;;;6070047;23;7167;-86
2022/08/27 11:33:15;;;;;;;;;;;;;;;;;;6094356;23;8593;-87
2022/08/27 11:35:51;;;;;;;;;;;;;;;;;;6094095;23;8447;-86
2022/08/27 11:38:35;;;;;;;;;;;;;;;;;;6094277;23;8735;-87
2022/08/27 11:41:01;;;;;;;;;;;;;;;;;;6070263;23;8415;-86
2022/08/27 11:43:32;;;;;;;;;;;;;;;;;;6070331;23;8377;-86
2022/08/27 11:46:07;;;;;;;;;;;;;;;;;;6094218;23;8436;-89
2022/08/27 11:48:35;;;;;;;;;;;;;;;;;;6094458;23;8812;-87
2022/08/27 11:51:05;;;;;;;;;;;;;;;;;;6070290;23;8427;-88
2022/08/27 11:53:33;;;;;;;;;;;;;;;;;;6094249;23;8866;-88
2022/08/27 11:56:14;;;;;;;;;;;;;;;;;;6093954;23;8524;-86
2022/08/27 11:58:40;;;;;;;;;;;;;;;;;;6069968;23;7052;-86
2022/08/27 12:01:14;;;;;;;;;;;;;;;;;;6093998;23;8472;-86
2022/08/27 12:03:41;;;;;;;;;;;;;;;;;;6070043;23;8401;-86
2022/08/27 12:06:19;;;;;;;;;;;;;;;;;;6093913;23;8795;-86
2022/08/27 12:08:45;;;;;;;;;;;;;;;;;;6094047;23;7899;-85
2022/08/27 12:11:29;;;;;;;;;;;;;;;;;;6094349;23;8645;-87
2022/08/27 12:14:22;;;;;;;;;;;;;;;;;;6070073;23;8389;-86
2022/08/27 12:16:51;;;;;;;;;;;;;;;;;;6094046;23;8733;-85
2022/08/27 12:19:27;;;;;;;;;;;;;;;;;;6069721;23;8423;-85
2022/08/27 12:22:04;;;;;;;;;;;;;;;;;;6093979;23;8462;-87
2022/08/27 12:24:42;;;;;;;;;;;;;;;;;;6069795;23;8584;-86
2022/08/27 12:27:28;;;;;;;;;;;;;;;;;;6093979;23;7254;-87
2022/08/27 12:30:05;;;;;;;;;;;;;;;;;;6068973;23;8760;-87
2022/08/27 12:32:45;;;;;;;;;;;;;;;;;;6101542;23;8844;-80
2022/08/27 12:35:27;;;;;;;;;;;;;;;;;;6094873;23;8760;-87
2022/08/27 12:37:55;;;;;;;;;;;;;;;;;;6093886;23;7351;-87
2022/08/27 12:40:29;;;;;;;;;;;;;;;;;;6093723;23;8742;-87
2022/08/27 12:43:12;;;;;;;;;;;;;;;;;;6093800;23;7163;-87
2022/08/27 12:45:44;;;;;;;;;;;;;;;;;;6093492;23;8493;-87
2022/08/27 12:48:10;;;;;;;;;;;;;;;;;;6093484;23;8392;-87
2022/08/27 12:50:37;;;;;;;;;;;;;;;;;;6094916;23;8750;-88
2022/08/27 12:53:14;;;;;;;;;;;;;;;;;;6093990;23;8841;-86
2022/08/27 12:55:58;;;;;;;;;;;;;;;;;;6093678;23;8754;-86
2022/08/27 12:58:24;;;;;;;;;;;;;;;;;;6069592;23;8322;-87
2022/08/27 13:01:10;;;;;;;;;;;;;;;;;;6068968;23;8694;-87
2022/08/27 13:03:48;;;;;;;;;;;;;;;;;;6093917;23;7035;-87
2022/08/27 13:06:22;;;;;;;;;;;;;;;;;;6093577;23;8474;-86
2022/08/27 13:08:53;;;;;;;;;;;;;;;;;;6093514;23;9201;-86
2022/08/27 13:11:23;;;;;;;;;;;;;;;;;;6093391;23;8463;-87
2022/08/27 13:13:50;;;;;;;;;;;;;;;;;;6092704;23;8454;-87
2022/08/27 13:16:17;;;;;;;;;;;;;;;;;;6089711;23;8813;-87
2022/08/27 13:18:50;;;;;;;;;;;;;;;;;;6039981;23;7069;-86
2022/08/27 13:21:27;;;;;;;;;;;;;;;;;;6038547;23;8532;-88
2022/08/27 13:24:01;;;;;;;;;;;;;;;;;;6040604;23;8415;-82
2022/08/27 13:26:28;;;;;;;;;;;;;;;;;;6038811;23;7083;-81
2022/08/27 13:28:55;;;;;;;;;;;;;;;;;;6033718;23;8358;-85
2022/08/27 13:31:22;;;;;;;;;;;;;;;;;;6038548;23;8721;-86
2022/08/27 13:33:49;;;;;;;;;;;;;;;;;;6038125;23;8319;-81
2022/08/27 13:36:29;;;;;;;;;;;;;;;;;;6036238;23;8440;-82
2022/08/27 13:38:55;;;;;;;;;;;;;;;;;;6037381;23;8542;-81
2022/08/27 13:41:29;;;;;;;;;;;;;;;;;;6037856;23;8594;-81
2022/08/27 13:43:56;;;;;;;;;;;;;;;;;;6036833;23;7050;-83
2022/08/27 13:46:25;;;;;;;;;;;;;;;;;;6036108;23;8472;-84
2022/08/27 13:48:54;;;;;;;;;;;;;;;;;;6038028;23;8764;-84
2022/08/27 13:51:25;;;;;;;;;;;;;;;;;;6043682;23;8614;-84
2022/08/27 13:56:38;;;;;;;;;;;;;;;;;;6052917;23;6816;-83
2022/08/27 13:59:11;;;;;;;;;;;;;;;;;;6045191;23;8424;-85
2022/08/27 14:01:38;;;;;;;;;;;;;;;;;;6040330;23;6879;-84
2022/08/27 14:04:07;;;;;;;;;;;;;;;;;;6049891;23;9204;-84
2022/08/27 14:06:45;;;;;;;;;;;;;;;;;;6050991;23;8270;-84
2022/08/27 14:09:25;;;;;;;;;;;;;;;;;;6050700;23;8139;-83
2022/08/27 14:11:59;;;;;;;;;;;;;;;;;;6042339;23;8800;-85
2022/08/27 14:14:25;;;;;;;;;;;;;;;;;;6039717;23;8480;-88
2022/08/27 14:16:58;;;;;;;;;;;;;;;;;;6054145;23;8568;-85
2022/08/27 14:19:24;;;;;;;;;;;;;;;;;;6092036;23;8409;-84
2022/08/27 14:21:51;;;;;;;;;;;;;;;;;;6067424;23;8375;-86
2022/08/27 14:24:17;;;;;;;;;;;;;;;;;;6091644;23;8473;-85
2022/08/27 14:26:42;;;;;;;;;;;;;;;;;;6092123;23;8713;-84
2022/08/27 14:29:08;;;;;;;;;;;;;;;;;;6088875;23;7417;-84
2022/08/27 14:31:33;;;;;;;;;;;;;;;;;;6094348;23;8373;-87
2022/08/27 14:33:59;;;;;;;;;;;;;;;;;;6093917;23;8694;-86
2022/08/27 14:36:27;;;;;;;;;;;;;;;;;;6093265;23;8426;-86
2022/08/27 14:38:54;;;;;;;;;;;;;;;;;;6093462;23;7122;-86
2022/08/27 14:41:20;;;;;;;;;;;;;;;;;;6094277;23;8417;-86
2022/08/27 14:43:46;;;;;;;;;;;;;;;;;;6092568;23;8500;-84
2022/08/27 14:46:18;;;;;;;;;;;;;;;;;;6092462;23;8423;-84
2022/08/27 14:48:44;;;;;;;;;;;;;;;;;;6093401;23;7049;-85
2022/08/27 14:51:18;;;;;;;;;;;;;;;;;;6092932;23;8409;-86
2022/08/27 14:53:43;;;;;;;;;;;;;;;;;;6094690;23;8680;-87
2022/08/27 14:56:09;;;;;;;;;;;;;;;;;;6092937;23;8489;-87
2022/08/27 14:58:34;;;;;;;;;;;;;;;;;;6093683;23;8717;-83
2022/08/27 15:01:01;;;;;;;;;;;;;;;;;;6092359;23;7172;-86
2022/08/27 15:03:27;;;;;;;;;;;;;;;;;;6093628;23;9241;-86
2022/08/27 15:05:56;;;;;;;;;;;;;;;;;;6092009;23;8539;-86
2022/08/27 15:08:22;;;;;;;;;;;;;;;;;;6093314;23;7053;-86
2022/08/27 15:10:48;;;;;;;;;;;;;;;;;;6093488;23;8322;-82
2022/08/27 15:13:13;;;;;;;;;;;;;;;;;;6092895;23;8683;-84
2022/08/27 15:15:40;;;;;;;;;;;;;;;;;;6092798;23;8770;-85
2022/08/27 15:18:06;;;;;;;;;;;;;;;;;;6093349;23;9223;-85
2022/08/27 15:20:32;;;;;;;;;;;;;;;;;;6092256;23;8474;-84
2022/08/27 15:22:57;;;;;;;;;;;;;;;;;;6094404;23;8754;-86
2022/08/27 15:25:24;;;;;;;;;;;;;;;;;;6092184;23;8385;-86
2022/08/27 15:27:49;;;;;;;;;;;;;;;;;;6092159;23;8353;-86
2022/08/27 15:30:16;;;;;;;;;;;;;;;;;;6091658;23;8915;-81
2022/08/27 15:32:44;;;;;;;;;;;;;;;;;;6092898;23;8824;-81
2022/08/27 15:35:12;;;;;;;;;;;;;;;;;;6091935;23;7167;-87
2022/08/27 15:37:39;;;;;;;;;;;;;;;;;;6092610;23;8848;-84
2022/08/27 15:40:06;;;;;;;;;;;;;;;;;;6092804;23;7132;-88
2022/08/27 15:42:32;;;;;;;;;;;;;;;;;;6092158;23;7430;-87
2022/08/27 15:44:58;;;;;;;;;;;;;;;;;;6092623;23;8411;-83
2022/08/27 15:47:24;;;;;;;;;;;;;;;;;;6091564;23;8418;-82
2022/08/27 15:49:49;;;;;;;;;;;;;;;;;;6092321;23;8402;-82
2022/08/27 15:52:16;;;;;;;;;;;;;;;;;;6093693;23;8699;-83
2022/08/27 15:54:43;;;;;;;;;;;;;;;;;;6093451;23;8893;-81
2022/08/27 15:57:09;;;;;;;;;;;;;;;;;;6091578;23;8807;-82
2022/08/27 15:59:36;;;;;;;;;;;;;;;;;;6095268;23;8475;-81
2022/08/27 16:02:02;;;;;;;;;;;;;;;;;;6093889;23;8466;-81
2022/08/27 16:04:28;;;;;;;;;;;;;;;;;;6093799;23;7163;-81
2022/08/27 16:06:54;;;;;;;;;;;;;;;;;;6092830;23;8395;-83
2022/08/27 16:09:20;;;;;;;;;;;;;;;;;;6093797;23;8891;-84
2022/08/27 16:11:45;;;;;;;;;;;;;;;;;;6092685;23;8531;-85
2022/08/27 16:14:12;;;;;;;;;;;;;;;;;;6092892;23;8395;-84
2022/08/27 16:16:39;;;;;;;;;;;;;;;;;;6092391;23;7147;-80
2022/08/27 16:19:05;;;;;;;;;;;;;;;;;;6093148;23;7025;-84
2022/08/27 16:21:33;;;;;;;;;;;;;;;;;;6093431;23;8411;-84
2022/08/27 16:23:59;;;;;;;;;;;;;;;;;;6093965;23;7161;-84
2022/08/27 16:26:25;;;;;;;;;;;;;;;;;;6092220;23;8446;-87
2022/08/27 16:28:50;;;;;;;;;;;;;;;;;;6092814;23;7222;-87
2022/08/27 16:31:16;;;;;;;;;;;;;;;;;;6093890;23;8330;-86
2022/08/27 16:33:42;;;;;;;;;;;;;;;;;;6093706;23;8393;-86
2022/08/27 16:36:08;;;;;;;;;;;;;;;;;;6093326;23;8408;-88
2022/08/27 16:38:34;;;;;;;;;;;;;;;;;;6093149;23;8369;-86
2022/08/27 16:41:00;;;;;;;;;;;;;;;;;;6093181;23;9010;-86
2022/08/27 16:43:27;;;;;;;;;;;;;;;;;;6093576;23;8393;-87
2022/08/27 16:45:54;;;;;;;;;;;;;;;;;;6093067;23;7350;-87
2022/08/27 16:51:06;;;;;;;;;;;;;;;;;;6071085;23;6978;-87
2022/08/27 16:53:37;;;;;;;;;;;;;;;;;;6093216;23;8412;-87
2022/08/27 16:56:02;;;;;;;;;;;;;;;;;;6092432;23;8430;-86
2022/08/27 16:58:29;;;;;;;;;;;;;;;;;;6092469;23;8396;-85
2022/08/27 17:00:56;;;;;;;;;;;;;;;;;;6092973;23;8395;-85
2022/08/27 17:03:23;;;;;;;;;;;;;;;;;;6092638;23;8408;-86
2022/08/27 17:05:49;;;;;;;;;;;;;;;;;;6092568;23;7025;-85
2022/08/27 17:08:15;;;;;;;;;;;;;;;;;;6092462;23;7019;-84
2022/08/27 17:10:44;;;;;;;;;;;;;;;;;;6092831;23;6988;-86
2022/08/27 17:13:13;;;;;;;;;;;;;;;;;;6093105;23;8819;-86
2022/08/27 17:15:39;;;;;;;;;;;;;;;;;;6092791;23;8397;-86
2022/08/27 17:18:05;;;;;;;;;;;;;;;;;;6092592;23;8445;-86
2022/08/27 17:20:32;;;;;;;;;;;;;;;;;;6092731;23;6801;-86
2022/08/27 17:22:59;;;;;;;;;;;;;;;;;;6093312;23;8515;-86
2022/08/27 17:25:25;;;;;;;;;;;;;;;;;;6097185;23;8367;-87
2022/08/27 17:27:51;;;;;;;;;;;;;;;;;;6098036;23;7179;-88